createdAt,value
2023-02-14T00:01:23.361Z,5.07
2023-02-14T00:03:50.631Z,4.75
2023-02-14T00:06:18.385Z,4.78
2023-02-14T00:08:45.728Z,5.07
2023-02-14T00:11:13.728Z,4.60
2023-02-14T00:14:01.051Z,5.22
2023-02-14T00:16:28.672Z,4.72
2023-02-14T00:19:05.390Z,4.90
2023-02-14T00:21:38.428Z,4.90
2023-02-14T00:24:11.873Z,5.18
2023-02-14T00:26:40.067Z,4.88
2023-02-14T00:29:20.953Z,5.72
2023-02-14T00:31:51.266Z,5.43
2023-02-14T00:34:19.480Z,5.32
2023-02-14T00:36:47.914Z,5.18
2023-02-14T00:39:17.837Z,5.53
2023-02-14T00:41:45.809Z,5.35
2023-02-14T00:44:13.989Z,5.25
2023-02-14T00:46:41.858Z,5.93
2023-02-14T00:49:09.555Z,5.22
2023-02-14T00:51:39.478Z,6.10
2023-02-14T00:54:06.892Z,6.20
2023-02-14T00:56:34.411Z,6.22
2023-02-14T00:59:01.999Z,6.25
2023-02-14T01:01:29.675Z,5.97
2023-02-14T01:03:58.967Z,6.18
2023-02-14T01:06:26.619Z,7.00
2023-02-14T01:08:53.934Z,6.40
2023-02-14T01:11:23.889Z,6.97
2023-02-14T01:13:55.957Z,5.72
2023-02-14T01:16:26.365Z,6.57
2023-02-14T01:18:55.904Z,6.78
2023-02-14T01:21:29.664Z,6.75
2023-02-14T01:23:59.506Z,6.38
2023-02-14T01:26:28.813Z,6.10
2023-02-14T01:28:56.924Z,6.10
2023-02-14T01:31:27.838Z,6.55
2023-02-14T01:33:58.131Z,6.63
2023-02-14T01:36:28.987Z,7.20
2023-02-14T01:38:59.902Z,5.97
2023-02-14T01:41:30.048Z,6.15
2023-02-14T01:44:06.073Z,6.60
2023-02-14T01:46:38.072Z,6.38
2023-02-14T01:49:23.576Z,6.28
2023-02-14T01:52:03.862Z,6.07
2023-02-14T01:54:35.789Z,6.13
2023-02-14T01:57:08.857Z,6.07
2023-02-14T01:59:45.910Z,5.93
2023-02-14T02:02:13.693Z,4.90
2023-02-14T02:04:46.642Z,5.45
2023-02-14T02:07:23.723Z,5.72
2023-02-14T02:10:00.446Z,8.00
2023-02-14T02:12:30.692Z,6.20
2023-02-14T02:14:59.934Z,5.97
2023-02-14T02:17:30.469Z,6.20
2023-02-14T02:20:19.245Z,6.47
2023-02-14T02:22:52.863Z,6.72
2023-02-14T02:25:48.266Z,6.13
2023-02-14T02:28:40.898Z,6.00
2023-02-14T02:31:18.940Z,5.93
2023-02-14T02:34:11.514Z,7.13
2023-02-14T02:39:44.677Z,5.90
2023-02-14T02:42:24.256Z,6.35
2023-02-14T02:45:02.414Z,8.45
2023-02-14T02:47:42.825Z,7.40
2023-02-14T02:50:41.668Z,6.78
2023-02-14T02:53:18.383Z,6.53
2023-02-14T02:56:20.001Z,6.00
2023-02-14T02:58:58.796Z,7.13
2023-02-14T03:01:32.716Z,7.40
2023-02-14T03:04:22.522Z,7.32
2023-02-14T03:06:51.617Z,7.03
2023-02-14T03:09:27.991Z,6.25
2023-02-14T03:12:12.609Z,7.18
2023-02-14T03:14:52.129Z,7.25
2023-02-14T03:17:30.476Z,7.15
2023-02-14T03:20:16.929Z,7.32
2023-02-14T03:22:56.313Z,7.28
2023-02-14T03:25:23.516Z,7.47
2023-02-14T03:27:59.716Z,6.88
2023-02-14T03:30:54.584Z,6.97
2023-02-14T03:33:37.864Z,8.18
2023-02-14T03:36:12.761Z,9.82
2023-02-14T03:38:52.547Z,7.43
2023-02-14T03:41:26.187Z,6.53
2023-02-14T03:43:57.930Z,6.97
2023-02-14T03:46:52.000Z,5.90
2023-02-14T03:49:23.921Z,7.10
2023-02-14T03:51:55.067Z,7.18
2023-02-14T03:54:25.804Z,6.28
2023-02-14T03:57:03.093Z,6.95
2023-02-14T03:59:31.156Z,6.30
2023-02-14T04:02:10.670Z,10.60
2023-02-14T04:04:43.535Z,6.03
2023-02-14T04:07:13.873Z,6.60
2023-02-14T04:09:41.664Z,6.25
2023-02-14T04:12:09.429Z,6.50
2023-02-14T04:14:37.045Z,7.05
2023-02-14T04:17:23.923Z,6.45
2023-02-14T04:19:51.636Z,6.68
2023-02-14T04:22:19.157Z,5.97
2023-02-14T04:24:46.766Z,6.72
2023-02-14T04:27:14.409Z,6.03
2023-02-14T04:29:42.898Z,7.15
2023-02-14T04:32:12.829Z,6.72
2023-02-14T04:34:40.804Z,6.88
2023-02-14T04:37:08.647Z,6.05
2023-02-14T04:39:36.339Z,7.15
2023-02-14T04:42:04.766Z,6.07
2023-02-14T04:44:34.131Z,6.25
2023-02-14T04:47:02.062Z,5.53
2023-02-14T04:49:29.643Z,5.22
2023-02-14T04:51:57.752Z,5.75
2023-02-14T04:54:25.939Z,5.38
2023-02-14T04:56:53.157Z,5.95
2023-02-14T04:59:20.872Z,5.63
2023-02-14T05:01:48.412Z,6.28
2023-02-14T05:04:15.989Z,6.25
2023-02-14T05:06:43.212Z,5.95
2023-02-14T05:09:10.934Z,6.03
2023-02-14T05:11:38.211Z,5.63
2023-02-14T05:14:05.889Z,5.95
2023-02-14T05:16:33.288Z,6.63
2023-02-14T05:19:00.882Z,5.53
2023-02-14T05:21:28.765Z,6.25
2023-02-14T05:23:56.384Z,6.22
2023-02-14T05:26:23.645Z,5.75
2023-02-14T05:28:51.189Z,5.47
2023-02-14T05:31:18.539Z,5.28
2023-02-14T05:33:46.185Z,5.50
2023-02-14T05:36:13.677Z,6.28
2023-02-14T05:38:41.209Z,6.28
2023-02-14T05:41:08.621Z,12.27
2023-02-14T05:43:36.180Z,6.07
2023-02-14T05:46:03.536Z,5.63
2023-02-14T05:48:31.226Z,5.68
2023-02-14T05:51:03.063Z,5.25
2023-02-14T05:53:30.928Z,6.22
2023-02-14T05:55:58.470Z,5.95
2023-02-14T05:58:26.059Z,6.22
2023-02-14T06:00:53.322Z,6.50
2023-02-14T06:03:20.864Z,5.47
2023-02-14T06:05:48.112Z,9.82
2023-02-14T06:08:15.799Z,6.28
2023-02-14T06:10:43.167Z,6.25
2023-02-14T06:13:10.906Z,5.75
2023-02-14T06:15:38.697Z,5.70
2023-02-14T06:18:06.693Z,6.03
2023-02-14T06:20:34.286Z,5.75
2023-02-14T06:23:02.290Z,5.55
2023-02-14T06:25:29.590Z,5.65
2023-02-14T06:27:58.804Z,6.38
2023-02-14T06:30:26.893Z,6.25
2023-02-14T06:32:54.905Z,6.80
2023-02-14T06:35:22.548Z,5.82
2023-02-14T06:37:50.388Z,4.85
2023-02-14T06:40:19.806Z,5.30
2023-02-14T06:42:47.713Z,4.93
2023-02-14T06:45:14.987Z,4.95
2023-02-14T06:47:42.704Z,5.13
2023-02-14T06:50:11.831Z,4.68
2023-02-14T06:52:39.892Z,5.05
2023-02-14T06:55:07.657Z,5.05
2023-02-14T06:57:35.235Z,5.13
2023-02-14T07:00:02.824Z,4.60
2023-02-14T07:02:30.982Z,4.80
2023-02-14T07:04:58.394Z,4.63
2023-02-14T07:07:25.957Z,4.10
2023-02-14T07:09:53.203Z,4.20
2023-02-14T07:12:20.859Z,3.80
2023-02-14T07:14:48.085Z,4.00
2023-02-14T07:17:15.649Z,4.53
2023-02-14T07:19:44.091Z,4.32
2023-02-14T07:22:11.638Z,4.57
2023-02-14T07:24:38.999Z,5.25
2023-02-14T07:27:06.532Z,4.35
2023-02-14T07:29:33.837Z,4.57
2023-02-14T07:32:02.026Z,4.53
2023-02-14T07:34:29.385Z,4.45
2023-02-14T07:36:57.311Z,4.82
2023-02-14T07:39:24.692Z,4.57
2023-02-14T07:41:52.248Z,5.05
2023-02-14T07:44:20.354Z,4.32
2023-02-14T07:46:47.895Z,4.07
2023-02-14T07:49:15.446Z,4.35
2023-02-14T07:51:43.394Z,3.78
2023-02-14T07:54:10.652Z,3.67
2023-02-14T07:56:38.228Z,3.72
2023-02-14T07:59:05.494Z,3.13
2023-02-14T08:01:33.161Z,2.70
2023-02-14T08:04:00.429Z,3.22
2023-02-14T08:06:28.071Z,3.05
2023-02-14T08:08:55.444Z,3.30
2023-02-14T08:11:41.610Z,3.58
2023-02-14T08:14:08.915Z,4.20
2023-02-14T08:16:38.224Z,5.60
2023-02-14T08:19:05.641Z,3.95
2023-02-14T08:21:33.221Z,4.28
2023-02-14T08:24:00.569Z,3.92
2023-02-14T08:26:28.270Z,3.53
2023-02-14T08:28:55.524Z,3.95
2023-02-14T08:31:35.783Z,3.10
2023-02-14T08:34:07.185Z,3.42
2023-02-14T08:36:35.167Z,4.10
2023-02-14T08:39:04.764Z,3.15
2023-02-14T08:41:33.215Z,4.07
2023-02-14T08:44:00.790Z,3.80
2023-02-14T08:46:29.209Z,3.40
2023-02-14T08:48:56.709Z,3.50
2023-02-14T08:51:25.923Z,3.10
2023-02-14T08:53:53.314Z,3.55
2023-02-14T08:56:22.808Z,3.20
2023-02-14T08:58:54.617Z,3.72
2023-02-14T09:01:22.404Z,3.22
2023-02-14T09:03:49.864Z,3.03
2023-02-14T09:06:17.907Z,3.90
2023-02-14T09:08:45.936Z,3.20
2023-02-14T09:11:22.460Z,4.13
2023-02-14T09:13:53.301Z,4.25
2023-02-14T09:16:21.945Z,4.40
2023-02-14T09:18:49.727Z,4.25
2023-02-14T09:21:20.286Z,4.03
2023-02-14T09:23:47.584Z,3.67
2023-02-14T09:26:16.317Z,3.75
2023-02-14T09:28:44.400Z,4.03
2023-02-14T09:31:18.092Z,3.63
2023-02-14T09:34:05.359Z,3.75
2023-02-14T09:36:51.873Z,3.88
2023-02-14T09:39:19.442Z,3.70
2023-02-14T09:42:15.457Z,3.25
2023-02-14T09:44:52.566Z,3.40
2023-02-14T09:47:41.846Z,3.83
2023-02-14T09:50:49.814Z,3.70
2023-02-14T09:53:43.429Z,3.55
2023-02-14T09:56:31.058Z,4.97
2023-02-14T09:59:15.944Z,4.30
2023-02-14T10:01:49.621Z,3.90
2023-02-14T10:04:32.330Z,4.07
2023-02-14T10:07:24.590Z,4.30
2023-02-14T10:10:14.008Z,3.85
2023-02-14T10:12:48.739Z,3.30
2023-02-14T10:15:21.989Z,3.95
2023-02-14T10:18:32.481Z,3.92
2023-02-14T10:21:03.052Z,3.28
2023-02-14T10:23:41.307Z,3.63
2023-02-14T10:26:31.913Z,4.13
2023-02-14T10:28:59.294Z,3.65
2023-02-14T10:31:29.962Z,4.15
2023-02-14T10:34:08.514Z,4.43
2023-02-14T10:37:05.402Z,3.63
2023-02-14T10:40:01.974Z,3.60
2023-02-14T10:43:06.949Z,4.20
2023-02-14T10:46:03.751Z,3.95
2023-02-14T10:48:46.506Z,3.40
2023-02-14T10:51:23.350Z,3.70
2023-02-14T10:54:15.067Z,3.75
2023-02-14T10:56:45.910Z,3.38
2023-02-14T10:59:26.092Z,3.78
2023-02-14T11:01:55.860Z,3.60
2023-02-14T11:04:25.586Z,3.95
2023-02-14T11:06:53.822Z,3.47
2023-02-14T11:09:21.732Z,3.65
2023-02-14T11:11:53.554Z,3.63
2023-02-14T11:14:35.919Z,3.50
2023-02-14T11:17:31.725Z,3.60
2023-02-14T11:20:20.613Z,3.28
2023-02-14T11:22:47.928Z,3.50
2023-02-14T11:25:27.013Z,3.35
2023-02-14T11:27:57.188Z,3.97
2023-02-14T11:30:43.192Z,3.90
2023-02-14T11:33:22.080Z,3.80
2023-02-14T11:35:53.524Z,4.68
2023-02-14T11:38:26.718Z,4.47
2023-02-14T11:40:56.694Z,4.47
2023-02-14T11:44:09.542Z,4.85
2023-02-14T11:46:52.207Z,5.00
2023-02-14T11:49:30.814Z,6.15
2023-02-14T11:52:10.318Z,5.65
2023-02-14T11:54:40.708Z,6.55
2023-02-14T11:57:33.500Z,6.57
2023-02-14T12:00:05.008Z,6.00
2023-02-14T12:02:53.289Z,6.18
2023-02-14T12:05:20.819Z,6.30
2023-02-14T12:07:52.138Z,6.25
2023-02-14T12:10:25.371Z,6.07
2023-02-14T12:13:28.397Z,5.68
2023-02-14T12:15:58.102Z,6.15
2023-02-14T12:18:45.992Z,5.28
2023-02-14T12:21:35.547Z,5.43
2023-02-14T12:24:11.770Z,5.47
2023-02-14T12:26:46.910Z,5.43
2023-02-14T12:29:36.252Z,5.57
2023-02-14T12:32:19.863Z,11.52
2023-02-14T12:34:48.552Z,5.20
2023-02-14T12:37:34.022Z,4.57
2023-02-14T12:40:09.302Z,5.70
2023-02-14T12:42:48.592Z,4.60
2023-02-14T12:45:19.926Z,5.38
2023-02-14T12:48:25.395Z,4.20
2023-02-14T12:51:16.946Z,5.22
2023-02-14T12:54:05.635Z,4.67
2023-02-14T12:56:48.257Z,5.35
2023-02-14T12:59:47.355Z,6.72
2023-02-14T13:02:36.742Z,6.82
2023-02-14T13:05:16.450Z,7.97
2023-02-14T13:08:02.619Z,7.47
2023-02-14T13:10:35.802Z,6.85
2023-02-14T13:16:38.499Z,7.20
2023-02-14T13:19:33.818Z,7.75
2023-02-14T13:22:02.743Z,7.50
2023-02-14T13:24:39.616Z,7.30
2023-02-14T13:27:12.493Z,7.70
2023-02-14T13:29:50.636Z,7.18
2023-02-14T13:32:22.846Z,8.18
2023-02-14T13:34:51.396Z,8.10
2023-02-14T13:37:22.537Z,8.48
2023-02-14T13:40:17.392Z,8.10
2023-02-14T13:42:47.878Z,6.65
2023-02-14T13:45:32.623Z,6.10
2023-02-14T13:48:07.128Z,6.03
2023-02-14T13:50:48.720Z,6.80
2023-02-14T13:53:42.249Z,6.90
2023-02-14T13:56:13.245Z,5.97
2023-02-14T13:59:04.669Z,6.45
2023-02-14T14:01:36.015Z,5.97
2023-02-14T14:04:39.203Z,6.27
2023-02-14T14:07:18.544Z,6.00
2023-02-14T14:09:45.784Z,5.97
2023-02-14T14:12:40.750Z,6.00
2023-02-14T14:15:10.703Z,5.90
2023-02-14T14:17:46.572Z,6.15
2023-02-14T14:20:16.857Z,6.07
2023-02-14T14:22:53.266Z,6.20
2023-02-14T14:25:30.972Z,5.38
2023-02-14T14:27:59.002Z,6.00
2023-02-14T14:30:33.566Z,5.13
2023-02-14T14:33:23.959Z,5.78
2023-02-14T14:35:59.779Z,6.30
2023-02-14T14:38:29.277Z,5.90
2023-02-14T14:40:57.822Z,5.28
2023-02-14T14:43:31.485Z,5.05
2023-02-14T14:46:02.302Z,5.53
2023-02-14T14:48:37.343Z,5.22
2023-02-14T14:51:07.579Z,5.47
2023-02-14T14:53:48.938Z,5.47
2023-02-14T14:56:27.076Z,5.90
2023-02-14T14:58:55.083Z,6.15
2023-02-14T15:01:38.680Z,6.35
2023-02-14T15:04:12.549Z,5.45
2023-02-14T15:06:41.045Z,6.28
2023-02-14T15:09:32.034Z,5.57
2023-02-14T15:12:22.037Z,5.95
2023-02-14T15:14:54.801Z,4.97
2023-02-14T15:17:26.997Z,5.82
2023-02-14T15:20:05.708Z,6.57
2023-02-14T15:22:52.892Z,5.20
2023-02-14T15:25:34.979Z,5.88
2023-02-14T15:28:02.874Z,5.38
2023-02-14T15:30:37.999Z,5.88
2023-02-14T15:33:07.537Z,6.00
2023-02-14T15:35:39.387Z,5.93
2023-02-14T15:38:07.418Z,5.95
2023-02-14T15:40:36.033Z,6.75
2023-02-14T15:43:18.328Z,6.45
2023-02-14T15:45:49.094Z,6.47
2023-02-14T15:48:19.685Z,7.03
2023-02-14T15:50:51.453Z,7.18
2023-02-14T15:53:45.412Z,6.57
2023-02-14T15:56:19.433Z,6.32
2023-02-14T15:58:48.120Z,6.15
2023-02-14T16:01:20.957Z,6.15
2023-02-14T16:03:52.459Z,9.27
2023-02-14T16:06:35.578Z,6.90
2023-02-14T16:09:05.784Z,6.38
2023-02-14T16:11:37.189Z,6.57
2023-02-14T16:14:36.556Z,7.00
2023-02-14T16:17:07.917Z,6.70
2023-02-14T16:19:41.615Z,6.63
2023-02-14T16:22:23.893Z,6.82
2023-02-14T16:24:51.159Z,7.03
2023-02-14T16:27:18.759Z,7.78
2023-02-14T16:29:46.057Z,7.13
2023-02-14T16:32:20.594Z,7.95
2023-02-14T16:34:48.545Z,6.55
2023-02-14T16:37:21.072Z,6.15
2023-02-14T16:39:49.930Z,7.57
2023-02-14T16:42:18.706Z,6.95
2023-02-14T16:44:46.926Z,6.97
2023-02-14T16:47:16.485Z,6.70
2023-02-14T16:49:44.195Z,6.82
2023-02-14T16:52:17.762Z,8.63
2023-02-14T16:54:45.310Z,7.75
2023-02-14T16:57:23.769Z,7.97
2023-02-14T16:59:51.391Z,7.60
2023-02-14T17:02:19.607Z,8.52
2023-02-14T17:04:47.098Z,7.65
2023-02-14T17:07:16.118Z,8.65
2023-02-14T17:09:48.371Z,8.35
2023-02-14T17:12:21.038Z,8.25
2023-02-14T17:14:51.570Z,8.18
2023-02-14T17:17:19.409Z,8.50
2023-02-14T17:19:46.725Z,8.75
2023-02-14T17:22:14.845Z,8.75
2023-02-14T17:24:42.170Z,9.90
2023-02-14T17:27:10.015Z,9.07
2023-02-14T17:29:37.282Z,8.05
2023-02-14T17:32:05.199Z,8.02
2023-02-14T17:34:33.357Z,8.52
2023-02-14T17:37:00.965Z,8.35
2023-02-14T17:39:28.541Z,8.63
2023-02-14T17:41:56.923Z,8.75
2023-02-14T17:44:24.366Z,8.43
2023-02-14T17:46:54.692Z,8.48
2023-02-14T17:49:22.007Z,8.27
2023-02-14T17:51:49.567Z,9.95
2023-02-14T17:54:16.823Z,8.48
2023-02-14T17:56:44.369Z,8.43
2023-02-14T17:59:11.668Z,8.40
2023-02-14T18:01:39.352Z,7.63
2023-02-14T18:04:06.675Z,8.02
2023-02-14T18:06:34.536Z,7.65
2023-02-14T18:09:06.266Z,7.40
2023-02-14T18:14:01.868Z,8.70
2023-02-14T18:16:29.567Z,9.05
2023-02-14T18:18:56.897Z,8.45
2023-02-14T18:21:25.444Z,8.40
2023-02-14T18:23:52.730Z,8.65
2023-02-14T18:26:20.590Z,9.02
2023-02-14T18:28:48.413Z,9.40
2023-02-14T18:31:18.184Z,9.20
2023-02-14T18:33:49.336Z,9.45
2023-02-14T18:36:19.473Z,9.60
2023-02-14T18:38:48.519Z,9.52
2023-02-14T18:41:18.018Z,10.07
2023-02-14T18:43:45.579Z,9.10
2023-02-14T18:46:21.681Z,8.55
2023-02-14T18:48:49.607Z,7.47
2023-02-14T18:51:26.464Z,8.27
2023-02-14T18:53:55.547Z,8.02
2023-02-14T18:56:34.314Z,8.35
2023-02-14T18:59:07.469Z,7.85
2023-02-14T19:01:37.923Z,7.88
2023-02-14T19:04:08.739Z,7.53
2023-02-14T19:06:36.886Z,6.88
2023-02-14T19:09:08.902Z,7.82
2023-02-14T19:11:36.627Z,7.95
2023-02-14T19:14:09.889Z,7.72
2023-02-14T19:16:50.140Z,7.00
2023-02-14T19:19:18.124Z,7.85
2023-02-14T19:21:46.219Z,8.07
2023-02-14T19:24:16.451Z,8.55
2023-02-14T19:26:44.270Z,7.53
2023-02-14T19:29:17.072Z,12.90
2023-02-14T19:31:48.505Z,7.80
2023-02-14T19:34:22.578Z,7.05
2023-02-14T19:36:52.738Z,8.35
2023-02-14T19:39:21.157Z,7.68
2023-02-14T19:41:49.240Z,8.48
2023-02-14T19:44:18.269Z,7.97
2023-02-14T19:46:46.522Z,7.07
2023-02-14T19:49:16.582Z,8.05
2023-02-14T19:51:45.360Z,7.38
2023-02-14T19:54:13.029Z,6.60
2023-02-14T19:56:43.663Z,7.20
2023-02-14T19:59:14.463Z,7.25
2023-02-14T20:01:44.369Z,6.83
2023-02-14T20:04:14.920Z,7.18
2023-02-14T20:06:43.101Z,6.90
2023-02-14T20:09:11.460Z,7.03
2023-02-14T20:11:51.329Z,8.38
2023-02-14T20:14:20.525Z,8.77
2023-02-14T20:16:48.811Z,7.50
2023-02-14T20:19:18.717Z,8.57
2023-02-14T20:21:49.257Z,7.85
2023-02-14T20:24:23.278Z,8.07
2023-02-14T20:26:51.847Z,7.47
2023-02-14T20:29:19.957Z,7.55
2023-02-14T20:31:50.173Z,7.45
2023-02-14T20:34:18.516Z,7.05
2023-02-14T20:36:53.013Z,7.63
2023-02-14T20:39:22.487Z,7.68
2023-02-14T20:41:50.384Z,8.07
2023-02-14T20:44:21.393Z,8.35
2023-02-14T20:46:51.769Z,7.55
2023-02-14T20:49:20.669Z,7.70
2023-02-14T20:51:49.809Z,7.22
2023-02-14T20:54:21.468Z,7.50
2023-02-14T20:59:28.712Z,7.43
2023-02-14T21:01:58.593Z,7.32
2023-02-14T21:04:26.239Z,7.97
2023-02-14T21:06:53.881Z,7.10
2023-02-14T21:09:21.238Z,8.45
2023-02-14T21:11:49.667Z,7.75
2023-02-14T21:14:17.467Z,8.02
2023-02-14T21:16:45.053Z,8.25
2023-02-14T21:19:12.303Z,8.27
2023-02-14T21:21:40.123Z,9.30
2023-02-14T21:24:13.208Z,8.65
2023-02-14T21:26:41.706Z,8.35
2023-02-14T21:29:09.823Z,8.13
2023-02-14T21:31:37.872Z,8.85
2023-02-14T21:34:05.643Z,9.05
2023-02-14T21:36:38.014Z,8.88
2023-02-14T21:39:07.252Z,8.43
2023-02-14T21:41:36.640Z,9.45
2023-02-14T21:44:05.030Z,8.85
2023-02-14T21:46:38.398Z,9.30
2023-02-14T21:49:25.275Z,9.27
2023-02-14T21:51:52.973Z,9.23
2023-02-14T21:54:20.293Z,9.45
2023-02-14T21:56:49.869Z,10.15
2023-02-14T21:59:17.398Z,8.55
2023-02-14T22:01:44.983Z,8.38
2023-02-14T22:04:13.316Z,8.18
2023-02-14T22:06:42.424Z,9.95
2023-02-14T22:09:12.473Z,8.60
2023-02-14T22:11:40.723Z,9.43
2023-02-14T22:14:08.423Z,9.25
2023-02-14T22:16:37.036Z,8.73
2023-02-14T22:19:05.479Z,9.05
2023-02-14T22:21:33.625Z,7.72
2023-02-14T22:24:01.479Z,8.52
2023-02-14T22:26:31.559Z,9.90
2023-02-14T22:29:00.692Z,8.80
2023-02-14T22:31:33.474Z,9.45
2023-02-14T22:34:00.810Z,8.88
2023-02-14T22:36:28.352Z,10.15
2023-02-14T22:38:55.650Z,10.00
2023-02-14T22:41:24.624Z,9.70
2023-02-14T22:43:53.411Z,9.52
2023-02-14T22:46:26.897Z,9.80
2023-02-14T22:48:55.098Z,9.82
2023-02-14T22:51:49.083Z,9.90
2023-02-14T22:54:16.692Z,10.48
2023-02-14T22:56:46.825Z,9.68
2023-02-14T22:59:17.123Z,10.75
2023-02-14T23:01:45.790Z,9.93
2023-02-14T23:04:14.877Z,9.60
2023-02-14T23:06:42.671Z,10.55
2023-02-14T23:09:11.314Z,10.60
2023-02-14T23:11:40.384Z,10.20
2023-02-14T23:14:27.008Z,9.80
2023-02-14T23:17:06.595Z,9.20
2023-02-14T23:19:53.884Z,8.95
2023-02-14T23:22:25.826Z,9.48
2023-02-14T23:24:58.058Z,10.00
2023-02-14T23:27:37.387Z,9.35
2023-02-14T23:30:06.885Z,9.45
2023-02-14T23:32:34.652Z,9.27
2023-02-14T23:35:02.131Z,9.45
2023-02-14T23:37:29.669Z,9.27
2023-02-14T23:39:56.962Z,9.02
2023-02-14T23:42:24.589Z,8.32
2023-02-14T23:44:51.842Z,8.52
2023-02-14T23:47:19.433Z,8.45
2023-02-14T23:49:46.647Z,8.90
2023-02-14T23:52:14.757Z,9.52
2023-02-14T23:54:41.997Z,8.40
2023-02-14T23:57:09.709Z,9.75
2023-02-14T23:59:37.000Z,8.88
